Time;durP1;ratioP1;P1;durP2;ratioP2;P2;SDS_P1;SDS_P2;PMS_P1;PMS_P2;Temp;Humidity;BMP_temperature;BMP_pressure;BME280_temperature;BME280_humidity;BME280_pressure;Samples;Min_cycle;Max_cycle;Signal;HPM_P1;HPM_P2
2021/05/02 00:01:03;;;;;;;27.33;15.05;;;461.30;2380.80;;;;;;5038241;28;20017;-78
2021/05/02 00:03:29;;;;;;;29.80;14.57;;;461.10;2380.80;;;;;;5036904;28;20051;-74
2021/05/02 00:05:55;;;;;;;25.98;13.15;;;461.10;2380.80;;;;;;5039091;28;20032;-80
2021/05/02 00:08:21;;;;;;;24.90;12.10;;;461.10;2380.80;;;;;;5038649;28;20036;-81
2021/05/02 00:10:47;;;;;;;24.20;13.70;;;461.00;2380.80;;;;;;5038968;28;20027;-80
2021/05/02 00:13:13;;;;;;;23.25;11.48;;;461.00;2380.80;;;;;;5057392;28;20357;-79
2021/05/02 00:15:39;;;;;;;27.05;11.43;;;460.80;2380.80;;;;;;5055483;28;20020;-80
2021/05/02 00:18:05;;;;;;;25.88;11.88;;;436.10;2355.20;;;;;;5038813;28;20452;-79
2021/05/02 00:20:31;;;;;;;24.23;11.10;;;460.80;2380.80;;;;;;5056307;28;20021;-81
2021/05/02 00:23:02;;;;;;;22.30;11.38;;;460.80;2380.80;;;;;;5038200;28;20471;-81
2021/05/02 00:25:32;;;;;;;26.92;11.93;;;460.90;2380.80;;;;;;5035700;28;20029;-79
2021/05/02 00:28:00;;;;;;;22.25;11.80;;;460.80;2380.80;;;;;;5038189;28;20445;-78
2021/05/02 00:30:27;;;;;;;28.85;11.38;;;460.80;2380.80;;;;;;5038300;28;20029;-78
2021/05/02 00:32:55;;;;;;;25.92;12.60;;;436.00;2355.20;;;;;;5038819;28;20074;-77
2021/05/02 00:35:24;;;;;;;25.80;12.20;;;460.80;2380.80;;;;;;5038230;28;20106;-77
2021/05/02 00:37:51;;;;;;;28.13;16.25;;;460.80;2380.80;;;;;;5038097;28;20108;-79
2021/05/02 00:40:20;;;;;;;28.50;13.15;;;460.80;2380.80;;;;;;5038498;28;20094;-76
2021/05/02 00:42:51;;;;;;;21.98;12.25;;;460.80;2380.80;;;;;;5054885;28;20020;-77
2021/05/02 00:45:35;;;;;;;22.70;12.88;;;460.80;2380.80;;;;;;5038997;28;20395;-80
2021/05/02 00:48:09;;;;;;;23.85;10.75;;;435.90;2355.20;;;;;;5038547;28;20110;-78
2021/05/02 00:50:48;;;;;;;20.95;11.00;;;435.60;2355.20;;;;;;5038268;28;20108;-80
2021/05/02 00:53:27;;;;;;;24.10;11.07;;;435.80;2355.20;;;;;;5055868;28;20404;-78
2021/05/02 00:55:59;;;;;;;21.75;12.45;;;435.80;2355.20;;;;;;5038203;28;20069;-78
2021/05/02 00:58:51;;;;;;;26.75;11.38;;;435.90;2355.20;;;;;;5037883;28;20028;-79
2021/05/02 01:01:20;;;;;;;24.70;10.75;;;435.90;2355.20;;;;;;5034591;28;20025;-77
2021/05/02 01:03:47;;;;;;;19.73;10.05;;;435.60;2355.20;;;;;;5037547;28;20112;-76
2021/05/02 01:06:15;;;;;;;23.63;11.77;;;435.60;2355.20;;;;;;5037685;28;20110;-80
2021/05/02 01:08:42;;;;;;;18.25;9.13;;;435.70;2355.20;;;;;;5038439;28;20028;-80
2021/05/02 01:11:12;;;;;;;27.65;11.13;;;435.60;2355.20;;;;;;5055737;28;20032;-77
2021/05/02 01:13:45;;;;;;;24.42;10.93;;;435.50;2355.20;;;;;;5054468;28;20021;-77
2021/05/02 01:16:14;;;;;;;24.80;11.88;;;435.60;2355.20;;;;;;5038340;28;20472;-80
2021/05/02 01:18:40;;;;;;;23.08;10.27;;;435.60;2355.20;;;;;;5037659;28;20116;-80
2021/05/02 01:21:08;;;;;;;27.58;10.57;;;435.50;2355.20;;;;;;5037471;28;20024;-78
2021/05/02 01:23:35;;;;;;;18.80;9.85;;;435.70;2355.20;;;;;;5037750;28;20480;-80
2021/05/02 01:26:01;;;;;;;19.23;9.77;;;435.80;2355.20;;;;;;5053874;28;20112;-79
2021/05/02 01:28:28;;;;;;;26.33;9.38;;;435.20;2355.20;;;;;;5037405;28;20032;-80
2021/05/02 01:30:56;;;;;;;25.00;11.40;;;435.80;2355.20;;;;;;5037320;28;20025;-79
2021/05/02 01:33:22;;;;;;;28.10;10.10;;;435.60;2355.20;;;;;;5037172;28;20025;-81
2021/05/02 01:35:49;;;;;;;18.48;9.93;;;435.70;2355.20;;;;;;5055283;28;20025;-81
2021/05/02 01:38:16;;;;;;;19.15;9.02;;;435.70;2355.20;;;;;;5037211;28;20626;-80
2021/05/02 01:40:42;;;;;;;21.90;10.23;;;435.60;2355.20;;;;;;5054708;28;20029;-78
2021/05/02 01:43:08;;;;;;;18.55;10.57;;;435.60;2355.20;;;;;;5055487;28;20020;-81
2021/05/02 01:45:34;;;;;;;19.77;9.68;;;435.50;2355.20;;;;;;5055087;28;20025;-78
2021/05/02 01:48:05;;;;;;;23.45;10.63;;;435.70;2355.20;;;;;;5037140;28;20064;-80
2021/05/02 01:50:54;;;;;;;18.48;9.63;;;435.50;2355.20;;;;;;5037023;28;20024;-80
2021/05/02 01:53:20;;;;;;;21.00;8.35;;;435.30;2355.20;;;;;;5036158;28;20040;-80
2021/05/02 01:55:47;;;;;;;20.85;9.23;;;435.40;2355.20;;;;;;5054630;28;20048;-81
2021/05/02 01:58:14;;;;;;;17.17;8.43;;;410.30;2355.20;;;;;;5053669;28;20056;-79
2021/05/02 02:00:45;;;;;;;18.92;8.70;;;435.30;2355.20;;;;;;5036704;28;20024;-79
2021/05/02 02:03:11;;;;;;;16.65;9.68;;;435.40;2355.20;;;;;;5036892;28;20021;-81
2021/05/02 02:05:39;;;;;;;19.70;10.00;;;435.50;2355.20;;;;;;5037215;28;20053;-79
2021/05/02 02:08:07;;;;;;;20.15;8.75;;;435.30;2355.20;;;;;;5036499;28;20528;-80
2021/05/02 02:10:34;;;;;;;20.35;9.50;;;435.30;2355.20;;;;;;5054535;28;20112;-79
2021/05/02 02:13:00;;;;;;;27.55;11.07;;;435.40;2355.20;;;;;;5053858;28;20351;-79
2021/05/02 02:15:28;;;;;;;21.08;9.45;;;435.40;2355.20;;;;;;5036460;28;20053;-80
2021/05/02 02:17:57;;;;;;;19.35;9.73;;;435.40;2355.20;;;;;;5053904;28;20033;-79
2021/05/02 02:20:25;;;;;;;24.08;10.27;;;435.20;2355.20;;;;;;5053215;28;20058;-79
2021/05/02 02:22:55;;;;;;;16.77;8.88;;;435.30;2355.20;;;;;;5036272;28;20021;-79
2021/05/02 02:25:26;;;;;;;18.17;9.65;;;435.30;2355.20;;;;;;5035971;28;20025;-77
2021/05/02 02:27:55;;;;;;;20.02;9.60;;;435.20;2355.20;;;;;;5036222;28;20032;-78
2021/05/02 02:30:22;;;;;;;20.80;9.20;;;435.20;2355.20;;;;;;5036887;28;20040;-79
2021/05/02 02:32:48;;;;;;;23.58;9.50;;;435.30;2355.20;;;;;;5036928;28;20517;-81
2021/05/02 02:35:17;;;;;;;22.00;10.15;;;435.20;2355.20;;;;;;5036046;28;20017;-81
2021/05/02 02:37:55;;;;;;;16.05;8.52;;;435.20;2355.20;;;;;;5036405;28;20025;-80
2021/05/02 02:40:23;;;;;;;20.50;9.88;;;435.30;2355.20;;;;;;5036295;28;20115;-79
2021/05/02 02:42:50;;;;;;;21.40;9.05;;;435.30;2355.20;;;;;;5036173;28;20021;-77
2021/05/02 02:45:17;;;;;;;17.40;9.02;;;435.20;2355.20;;;;;;5036130;28;20025;-78
2021/05/02 02:47:52;;;;;;;26.80;12.43;;;435.20;2355.20;;;;;;5052765;28;20121;-80
2021/05/02 02:50:19;;;;;;;26.20;13.32;;;410.50;2355.20;;;;;;5035856;28;20027;-77
2021/05/02 02:52:51;;;;;;;26.08;12.98;;;410.30;2355.20;;;;;;5034752;28;20048;-77
2021/05/02 02:55:19;;;;;;;31.77;15.30;;;410.40;2355.20;;;;;;5051981;28;20059;-78
2021/05/02 02:57:59;;;;;;;25.45;14.50;;;410.30;2355.20;;;;;;5053132;28;20053;-79
2021/05/02 03:00:30;;;;;;;29.75;14.63;;;410.30;2355.20;;;;;;5053160;28;20025;-78
2021/05/02 03:03:13;;;;;;;26.25;13.13;;;410.00;2355.20;;;;;;5053666;28;20116;-81
2021/05/02 03:05:41;;;;;;;21.88;12.18;;;410.20;2355.20;;;;;;5036521;28;20021;-76
2021/05/02 03:08:10;;;;;;;24.30;13.65;;;410.20;2355.20;;;;;;5053743;28;20086;-80
2021/05/02 03:10:41;;;;;;;28.40;13.63;;;410.20;2355.20;;;;;;5035560;28;20048;-79
2021/05/02 03:13:07;;;;;;;26.50;12.27;;;410.20;2355.20;;;;;;5036453;28;20017;-80
2021/05/02 03:15:34;;;;;;;23.85;13.38;;;410.20;2355.20;;;;;;5036004;28;20100;-80
2021/05/02 03:18:11;;;;;;;23.98;13.18;;;410.00;2355.20;;;;;;5035647;28;20033;-80
2021/05/02 03:20:39;;;;;;;24.20;11.82;;;410.20;2355.20;;;;;;5036087;28;20025;-78
2021/05/02 03:23:19;;;;;;;26.00;11.35;;;410.20;2355.20;;;;;;5036357;28;20510;-79
2021/05/02 03:25:48;;;;;;;21.95;11.27;;;410.20;2355.20;;;;;;5035943;28;20017;-77
2021/05/02 03:28:20;;;;;;;22.55;10.18;;;410.20;2355.20;;;;;;5035651;28;20029;-77
2021/05/02 03:30:47;;;;;;;28.10;13.45;;;410.20;2355.20;;;;;;5038240;28;20056;-78
2021/05/02 03:33:15;;;;;;;31.85;14.88;;;410.10;2355.20;;;;;;5039728;28;20055;-79
2021/05/02 03:35:45;;;;;;;22.52;12.88;;;410.00;2355.20;;;;;;5040141;28;20483;-80
2021/05/02 03:38:48;;;;;;;23.40;11.75;;;410.10;2355.20;;;;;;5039472;28;20074;-79
2021/05/02 03:41:15;;;;;;;23.60;11.10;;;410.20;2355.20;;;;;;5039393;28;20021;-81
2021/05/02 03:43:42;;;;;;;21.88;12.65;;;410.00;2355.20;;;;;;5039357;28;20104;-80
2021/05/02 03:46:23;;;;;;;22.77;11.80;;;409.90;2355.20;;;;;;5039149;28;20112;-80
2021/05/02 03:49:01;;;;;;;24.88;12.43;;;410.00;2355.20;;;;;;5039311;28;20024;-76
2021/05/02 03:51:29;;;;;;;25.48;11.48;;;410.00;2355.20;;;;;;5057173;28;20032;-77
2021/05/02 03:53:56;;;;;;;21.65;10.50;;;409.90;2355.20;;;;;;5039440;28;20048;-80
2021/05/02 03:56:39;;;;;;;23.45;11.43;;;410.10;2355.20;;;;;;5039330;28;20017;-81
2021/05/02 03:59:14;;;;;;;20.73;10.00;;;409.70;2355.20;;;;;;5039601;28;20021;-81
2021/05/02 04:01:48;;;;;;;25.48;10.05;;;409.80;2355.20;;;;;;5039157;28;20025;-79
2021/05/02 04:04:15;;;;;;;25.38;10.93;;;409.80;2355.20;;;;;;5057373;28;20352;-81
2021/05/02 04:06:41;;;;;;;20.98;10.82;;;409.80;2355.20;;;;;;5056688;28;20028;-81
2021/05/02 04:09:09;;;;;;;22.60;11.38;;;409.90;2355.20;;;;;;5039150;28;20025;-82
2021/05/02 04:11:35;;;;;;;25.13;11.65;;;410.00;2355.20;;;;;;5038959;28;20448;-79
2021/05/02 04:14:15;;;;;;;28.58;12.38;;;410.10;2355.20;;;;;;5038887;28;20020;-77
2021/05/02 04:16:41;;;;;;;21.00;12.00;;;410.00;2355.20;;;;;;5039109;28;20025;-80
2021/05/02 04:19:09;;;;;;;22.92;11.27;;;410.10;2355.20;;;;;;5038946;28;20055;-79
2021/05/02 04:21:36;;;;;;;23.65;12.15;;;410.10;2355.20;;;;;;5056269;28;20459;-79
2021/05/02 04:24:03;;;;;;;23.15;12.10;;;410.20;2355.20;;;;;;5056818;28;20021;-79
2021/05/02 04:26:29;;;;;;;20.52;10.95;;;410.20;2355.20;;;;;;5056275;28;20024;-80
2021/05/02 04:28:55;;;;;;;22.52;10.73;;;410.20;2355.20;;;;;;5056302;28;20516;-79
2021/05/02 04:31:21;;;;;;;24.42;11.25;;;409.90;2355.20;;;;;;5038870;28;20083;-79
2021/05/02 04:33:47;;;;;;;21.38;11.88;;;410.00;2355.20;;;;;;5056310;28;20445;-79
2021/05/02 04:36:14;;;;;;;30.90;15.18;;;410.20;2355.20;;;;;;5038817;28;20024;-80
2021/05/02 04:38:40;;;;;;;28.20;15.25;;;410.10;2355.20;;;;;;5038587;28;20338;-78
2021/05/02 04:41:06;;;;;;;42.45;18.95;;;410.20;2355.20;;;;;;5037903;28;20075;-78
2021/05/02 04:43:32;;;;;;;42.50;21.90;;;410.00;2355.20;;;;;;5056521;28;20036;-77
2021/05/02 04:45:58;;;;;;;47.67;22.60;;;410.10;2355.20;;;;;;5056168;28;20122;-78
2021/05/02 04:48:24;;;;;;;39.88;20.30;;;410.00;2355.20;;;;;;5038274;28;20120;-80
2021/05/02 04:50:50;;;;;;;33.25;19.30;;;410.00;2355.20;;;;;;5038276;28;20433;-79
2021/05/02 04:53:16;;;;;;;31.77;19.42;;;410.20;2355.20;;;;;;5038221;28;20049;-79
2021/05/02 04:55:42;;;;;;;37.90;19.58;;;410.00;2355.20;;;;;;5056005;28;20021;-79
2021/05/02 04:58:08;;;;;;;32.78;19.75;;;410.10;2355.20;;;;;;5038254;28;20029;-78
2021/05/02 05:00:34;;;;;;;35.47;19.17;;;410.20;2355.20;;;;;;5038243;28;20412;-79
2021/05/02 05:03:02;;;;;;;39.67;24.65;;;410.30;2355.20;;;;;;5038089;28;20337;-81
2021/05/02 05:05:29;;;;;;;42.60;26.55;;;410.30;2355.20;;;;;;5038340;28;20508;-81
2021/05/02 05:07:55;;;;;;;39.90;27.98;;;410.40;2355.20;;;;;;5037945;28;20029;-79
2021/05/02 05:10:20;;;;;;;37.22;24.73;;;410.40;2355.20;;;;;;5037370;28;20039;-79
2021/05/02 05:12:46;;;;;;;36.75;23.05;;;410.30;2355.20;;;;;;5037710;28;20029;-81
2021/05/02 05:15:12;;;;;;;29.20;20.58;;;410.30;2355.20;;;;;;5037454;28;20024;-79
2021/05/02 05:17:38;;;;;;;30.50;19.85;;;410.30;2355.20;;;;;;5037925;28;20060;-77
2021/05/02 05:20:05;;;;;;;37.13;21.45;;;410.40;2355.20;;;;;;5037591;28;20056;-80
2021/05/02 05:22:31;;;;;;;29.77;22.77;;;410.40;2355.20;;;;;;5037476;28;20029;-81
2021/05/02 05:24:58;;;;;;;37.58;21.15;;;410.20;2355.20;;;;;;5037670;28;20035;-79
2021/05/02 05:27:24;;;;;;;35.92;21.40;;;410.30;2355.20;;;;;;5055415;28;20025;-79
2021/05/02 05:29:50;;;;;;;29.92;17.48;;;410.30;2355.20;;;;;;5037267;28;20025;-80
2021/05/02 05:32:16;;;;;;;30.45;14.80;;;410.20;2355.20;;;;;;5055689;28;20066;-80
2021/05/02 05:34:42;;;;;;;25.60;15.73;;;410.30;2355.20;;;;;;5055429;28;20028;-79
2021/05/02 05:37:08;;;;;;;31.17;14.23;;;410.40;2355.20;;;;;;5037273;28;20024;-81
2021/05/02 05:39:34;;;;;;;23.73;13.75;;;410.50;2355.20;;;;;;5037347;28;20024;-81
2021/05/02 05:42:00;;;;;;;26.48;14.68;;;410.40;2355.20;;;;;;5055020;28;20364;-80
2021/05/02 05:44:26;;;;;;;45.05;18.27;;;435.20;2355.20;;;;;;5037136;28;20025;-79
2021/05/02 05:46:52;;;;;;;37.50;18.85;;;435.20;2355.20;;;;;;5037215;28;20033;-81
2021/05/02 05:49:19;;;;;;;27.88;15.88;;;435.40;2355.20;;;;;;5036108;28;20368;-77
2021/05/02 05:51:52;;;;;;;37.45;20.67;;;435.40;2355.20;;;;;;5054600;28;20017;-81
2021/05/02 05:54:18;;;;;;;38.78;22.83;;;435.50;2355.20;;;;;;5034897;28;20029;-79
2021/05/02 05:56:44;;;;;;;37.05;20.65;;;435.70;2355.20;;;;;;5054990;28;20044;-81
2021/05/02 05:59:10;;;;;;;41.90;23.17;;;435.70;2355.20;;;;;;5035088;28;20031;-79
2021/05/02 06:01:36;;;;;;;31.38;16.08;;;435.70;2355.20;;;;;;5054951;28;20075;-80
2021/05/02 06:04:03;;;;;;;33.13;18.88;;;435.70;2355.20;;;;;;5035874;28;20027;-79
2021/05/02 06:06:33;;;;;;;33.78;20.25;;;435.60;2355.20;;;;;;5036612;28;20115;-78
2021/05/02 06:09:00;;;;;;;31.55;15.82;;;435.80;2355.20;;;;;;5035440;28;20028;-80
2021/05/02 06:11:29;;;;;;;33.83;16.23;;;435.80;2355.20;;;;;;5036727;28;20074;-80
2021/05/02 06:13:57;;;;;;;34.80;19.83;;;435.90;2355.20;;;;;;5035804;28;20024;-80
2021/05/02 06:16:23;;;;;;;32.30;16.45;;;460.80;2380.80;;;;;;5053241;28;20032;-81
2021/05/02 06:18:52;;;;;;;28.90;14.30;;;435.40;2355.20;;;;;;5035309;28;20017;-82
2021/05/02 06:21:19;;;;;;;29.60;11.90;;;461.10;2380.80;;;;;;5036933;28;20356;-79
2021/05/02 06:23:45;;;;;;;22.85;11.45;;;461.10;2380.80;;;;;;5053550;28;20472;-81
2021/05/02 06:26:12;;;;;;;23.73;11.98;;;461.30;2380.80;;;;;;5036512;28;20035;-81
2021/05/02 06:28:37;;;;;;;31.45;11.88;;;461.40;2380.80;;;;;;5037376;28;20052;-78
2021/05/02 06:31:03;;;;;;;27.90;12.20;;;461.50;2380.80;;;;;;5036417;28;20452;-78
2021/05/02 06:33:29;;;;;;;31.40;12.45;;;461.70;2380.80;;;;;;5034774;28;20021;-82
2021/05/02 06:35:55;;;;;;;26.17;12.57;;;486.40;2380.80;;;;;;5036497;28;20028;-78
2021/05/02 06:38:21;;;;;;;26.90;13.20;;;486.40;2380.80;;;;;;5035349;28;20029;-79
2021/05/02 06:40:47;;;;;;;33.40;16.35;;;486.50;2380.80;;;;;;5052923;28;20017;-82
2021/05/02 06:43:12;;;;;;;34.63;15.20;;;486.60;2380.80;;;;;;5053838;28;20464;-81
2021/05/02 06:45:38;;;;;;;29.92;14.98;;;486.70;2380.80;;;;;;5051548;28;20437;-78
2021/05/02 06:48:04;;;;;;;28.80;16.50;;;486.80;2380.80;;;;;;5035905;28;20040;-78
2021/05/02 06:50:31;;;;;;;25.83;13.55;;;486.80;2380.80;;;;;;5033472;28;20475;-79
2021/05/02 06:52:57;;;;;;;29.75;14.10;;;486.80;2380.80;;;;;;5033030;28;20037;-77
2021/05/02 06:55:23;;;;;;;31.13;17.25;;;486.90;2380.80;;;;;;5034913;28;20048;-79
2021/05/02 06:57:49;;;;;;;32.35;17.23;;;487.00;2380.80;;;;;;5052908;28;20040;-80
2021/05/02 07:00:15;;;;;;;33.10;16.63;;;487.00;2380.80;;;;;;5033066;28;20021;-75
2021/05/02 07:02:41;;;;;;;30.58;16.48;;;487.00;2380.80;;;;;;5034907;28;20471;-77
2021/05/02 07:05:08;;;;;;;31.25;15.77;;;487.30;2380.80;;;;;;5053420;28;20109;-76
2021/05/02 07:07:33;;;;;;;32.22;15.00;;;512.10;2380.80;;;;;;5033896;28;20069;-76
2021/05/02 07:09:59;;;;;;;23.67;13.15;;;512.30;2380.80;;;;;;5053481;28;20064;-81
2021/05/02 07:12:26;;;;;;;21.58;11.70;;;512.30;2380.80;;;;;;5038379;28;20577;-80
2021/05/02 07:14:52;;;;;;;23.42;12.32;;;512.50;2380.80;;;;;;5052329;28;20028;-81
2021/05/02 07:17:18;;;;;;;30.45;11.48;;;512.60;2380.80;;;;;;5034772;28;20021;-76
2021/05/02 07:19:44;;;;;;;22.80;11.40;;;537.60;2406.40;;;;;;5034891;28;20044;-80
2021/05/02 07:22:10;;;;;;;28.33;12.75;;;537.60;2406.40;;;;;;5035371;28;20472;-80
2021/05/02 07:24:37;;;;;;;31.35;13.82;;;537.90;2406.40;;;;;;5044940;28;20052;-76
2021/05/02 07:27:04;;;;;;;25.27;14.63;;;538.00;2406.40;;;;;;5033983;28;20029;-79
2021/05/02 07:29:30;;;;;;;28.98;20.17;;;538.20;2406.40;;;;;;5033506;28;20032;-83
2021/05/02 07:31:56;;;;;;;33.67;22.92;;;538.50;2406.40;;;;;;5034794;28;20024;-79
2021/05/02 07:34:23;;;;;;;18.65;11.02;;;563.30;2432.00;;;;;;5033029;28;20021;-83
2021/05/02 07:37:07;;;;;;;25.15;11.25;;;563.20;2432.00;;;;;;5052235;28;20067;-83
2021/05/02 07:39:33;;;;;;;25.00;12.10;;;563.30;2432.00;;;;;;5033398;28;20032;-84
2021/05/02 07:41:59;;;;;;;23.70;10.13;;;563.40;2432.00;;;;;;5031792;28;20029;-81
2021/05/02 07:44:25;;;;;;;26.98;12.07;;;563.70;2432.00;;;;;;5030365;28;20022;-84
2021/05/02 07:46:51;;;;;;;37.05;24.58;;;564.00;2432.00;;;;;;5029764;28;20040;-81
2021/05/02 07:49:17;;;;;;;26.92;13.07;;;588.80;2432.00;;;;;;5014081;28;20029;-81
2021/05/02 07:51:42;;;;;;;19.77;9.13;;;589.00;2432.00;;;;;;5046394;28;20604;-81
2021/05/02 07:54:09;;;;;;;21.17;9.10;;;589.10;2432.00;;;;;;5048320;28;20472;-84
2021/05/02 07:56:35;;;;;;;18.98;7.57;;;589.40;2432.00;;;;;;5029635;28;20477;-81
2021/05/02 07:59:01;;;;;;;22.73;9.05;;;589.40;2432.00;;;;;;5033441;28;20095;-82
2021/05/02 08:01:27;;;;;;;26.15;8.25;;;589.60;2432.00;;;;;;5028082;28;20036;-82
2021/05/02 08:03:53;;;;;;;21.67;8.77;;;614.40;2432.00;;;;;;5033537;28;20376;-81
2021/05/02 08:06:19;;;;;;;30.17;9.82;;;614.50;2432.00;;;;;;5033730;28;20040;-81
2021/05/02 08:08:45;;;;;;;22.27;8.18;;;614.70;2432.00;;;;;;5035720;28;20032;-82
2021/05/02 08:11:10;;;;;;;18.20;7.40;;;614.80;2432.00;;;;;;5031086;28;20025;-80
2021/05/02 08:13:36;;;;;;;14.70;7.10;;;614.80;2432.00;;;;;;5033452;28;20078;-81
2021/05/02 08:16:03;;;;;;;20.42;6.20;;;615.00;2432.00;;;;;;5034173;28;20037;-81
2021/05/02 08:18:29;;;;;;;23.58;7.18;;;615.20;2278.40;;;;;;5037224;28;20040;-81
2021/05/02 08:20:55;;;;;;;22.77;6.13;;;615.30;1971.20;;;;;;5036352;28;20021;-81
2021/05/02 08:23:21;;;;;;;18.33;7.18;;;640.00;1817.60;;;;;;5037938;28;20021;-83
2021/05/02 08:25:47;;;;;;;18.08;6.30;;;640.30;1817.60;;;;;;5036778;28;20357;-82
2021/05/02 08:28:13;;;;;;;19.10;5.63;;;640.50;1792.00;;;;;;5034667;28;20028;-84
2021/05/02 08:30:39;;;;;;;16.50;4.72;;;640.60;1740.80;;;;;;5033389;28;20017;-79
2021/05/02 08:33:05;;;;;;;17.88;5.13;;;640.50;1715.20;;;;;;5034422;28;20021;-80
2021/05/02 08:35:31;;;;;;;27.60;11.02;;;640.40;1689.60;;;;;;5036778;28;20040;-83
2021/05/02 08:37:57;;;;;;;16.48;5.95;;;640.70;1715.20;;;;;;5034149;28;20101;-82
2021/05/02 08:40:23;;;;;;;19.35;6.82;;;640.90;1689.60;;;;;;5034456;28;20036;-82
2021/05/02 08:42:49;;;;;;;19.58;6.22;;;665.70;1612.80;;;;;;5032589;28;20037;-82
2021/05/02 08:45:15;;;;;;;14.30;4.32;;;665.90;1561.60;;;;;;5039634;28;20114;-83
2021/05/02 08:47:41;;;;;;;20.95;5.15;;;666.10;1510.40;;;;;;5034119;28;20028;-81
2021/05/02 08:50:09;;;;;;;22.48;4.68;;;666.20;1510.40;;;;;;5038993;28;20024;-83
2021/05/02 08:52:37;;;;;;;21.90;5.88;;;666.30;1484.80;;;;;;5033954;28;20140;-83
2021/05/02 08:55:06;;;;;;;17.05;5.05;;;666.30;1459.20;;;;;;5033933;28;20023;-82
2021/05/02 08:57:36;;;;;;;15.43;5.40;;;666.40;1459.20;;;;;;5033397;28;20039;-83
2021/05/02 09:00:05;;;;;;;22.67;6.38;;;666.50;1459.20;;;;;;5050269;28;20032;-81
2021/05/02 09:02:31;;;;;;;18.42;4.47;;;691.30;1459.20;;;;;;5030401;28;20023;-79
2021/05/02 09:05:03;;;;;;;19.58;4.07;;;691.30;1433.60;;;;;;5035160;28;20043;-81
2021/05/02 09:07:43;;;;;;;17.40;4.38;;;691.40;1382.40;;;;;;5032748;28;20071;-80
2021/05/02 09:10:14;;;;;;;17.90;3.80;;;691.40;1382.40;;;;;;5034272;28;20017;-84
2021/05/02 09:12:42;;;;;;;17.83;5.00;;;691.60;1382.40;;;;;;5033212;28;20471;-79
2021/05/02 09:15:17;;;;;;;17.98;5.20;;;691.70;1331.20;;;;;;5033863;28;20103;-80
2021/05/02 09:18:09;;;;;;;22.10;6.68;;;691.60;1305.60;;;;;;5033743;28;20032;-79
2021/05/02 09:20:53;;;;;;;19.05;3.90;;;691.80;1305.60;;;;;;5030055;28;20023;-82
2021/05/02 09:23:19;;;;;;;15.88;4.82;;;692.10;1280.00;;;;;;5030003;28;20017;-79
2021/05/02 09:25:46;;;;;;;20.88;4.07;;;716.80;1280.00;;;;;;5049080;28;20028;-79
2021/05/02 09:28:12;;;;;;;16.48;3.83;;;716.80;1280.00;;;;;;5031941;28;20028;-77
2021/05/02 09:30:38;;;;;;;17.02;4.72;;;716.80;1280.00;;;;;;5034930;28;20471;-81
2021/05/02 09:33:04;;;;;;;19.83;4.80;;;717.00;1280.00;;;;;;5050748;28;20456;-81
2021/05/02 09:35:32;;;;;;;17.20;4.32;;;717.00;1254.40;;;;;;5036330;28;20021;-81
2021/05/02 09:38:17;;;;;;;21.73;5.60;;;717.20;1280.00;;;;;;5036271;28;20033;-81
2021/05/02 09:40:45;;;;;;;17.20;3.70;;;717.40;1254.40;;;;;;5032925;28;20013;-80
2021/05/02 09:43:46;;;;;;;15.85;3.75;;;717.40;1228.80;;;;;;5052150;28;20028;-80
2021/05/02 09:48:57;;;;;;;18.95;4.82;;;717.70;1203.20;;;;;;5053743;28;20064;-79
2021/05/02 09:51:25;;;;;;;22.93;4.50;;;717.40;1254.40;;;;;;5031797;28;20430;-80
2021/05/02 09:54:01;;;;;;;19.45;3.72;;;717.40;1254.40;;;;;;5038605;28;20113;-80
2021/05/02 09:56:35;;;;;;;14.85;3.67;;;717.10;1280.00;;;;;;5051384;28;20031;-75
2021/05/02 09:59:02;;;;;;;17.17;4.28;;;717.00;1254.40;;;;;;5034578;28;20021;-74
2021/05/02 10:01:28;;;;;;;19.40;4.53;;;717.10;1254.40;;;;;;5053216;28;20032;-75
2021/05/02 10:03:55;;;;;;;22.50;5.28;;;717.10;1254.40;;;;;;5050241;28;20025;-76
2021/05/02 10:06:35;;;;;;;20.48;4.90;;;717.10;1280.00;;;;;;5032136;28;20156;-80
2021/05/02 10:09:06;;;;;;;15.05;4.25;;;717.10;1254.40;;;;;;5033264;28;20025;-80
2021/05/02 10:11:34;;;;;;;20.15;4.32;;;717.50;1203.20;;;;;;5033523;28;20024;-75
2021/05/02 10:14:02;;;;;;;13.27;3.90;;;742.50;1203.20;;;;;;5037414;28;20024;-76
2021/05/02 10:16:29;;;;;;;19.75;5.00;;;742.60;1152.00;;;;;;5030810;28;20025;-76
2021/05/02 10:18:57;;;;;;;20.17;5.13;;;742.80;1177.60;;;;;;5049771;28;20029;-78
2021/05/02 10:21:24;;;;;;;15.43;5.00;;;742.50;1177.60;;;;;;5030969;28;20036;-78
2021/05/02 10:23:50;;;;;;;15.30;4.03;;;742.40;1177.60;;;;;;5051355;28;20344;-79
2021/05/02 10:26:16;;;;;;;25.35;4.50;;;717.60;1152.00;;;;;;5033246;28;20025;-78
2021/05/02 10:28:46;;;;;;;14.00;4.68;;;717.10;1177.60;;;;;;5031340;28;20025;-76
2021/05/02 10:31:14;;;;;;;16.90;3.83;;;717.40;1203.20;;;;;;5047701;28;20457;-77
2021/05/02 10:33:44;;;;;;;13.20;4.82;;;717.70;1152.00;;;;;;5030645;28;20467;-78
2021/05/02 10:36:28;;;;;;;13.63;3.60;;;742.80;1177.60;;;;;;5031796;28;20033;-76
2021/05/02 10:38:55;;;;;;;19.17;3.90;;;743.20;1126.40;;;;;;5030788;28;20483;-74
2021/05/02 10:41:35;;;;;;;15.43;4.53;;;743.30;1075.20;;;;;;5033224;28;20028;-76
2021/05/02 10:44:06;;;;;;;18.60;4.70;;;768.10;1075.20;;;;;;5048237;28;20075;-75
2021/05/02 10:46:42;;;;;;;14.82;4.18;;;743.30;1075.20;;;;;;5030286;28;20028;-75
2021/05/02 10:49:20;;;;;;;15.65;4.93;;;768.60;1075.20;;;;;;5046104;28;20452;-77
2021/05/02 10:51:47;;;;;;;15.27;4.10;;;768.70;1049.60;;;;;;5048845;28;20059;-75
2021/05/02 10:54:16;;;;;;;14.60;3.70;;;768.90;1049.60;;;;;;5033028;28;20349;-76
2021/05/02 10:56:43;;;;;;;17.60;4.57;;;768.90;1049.60;;;;;;5031473;28;20387;-77
2021/05/02 10:59:09;;;;;;;15.77;4.60;;;768.90;1024.00;;;;;;5031361;28;20017;-76
2021/05/02 11:01:35;;;;;;;16.23;4.53;;;768.80;1024.00;;;;;;5031000;28;20075;-77
2021/05/02 11:04:02;;;;;;;20.50;5.18;;;793.70;1024.00;;;;;;5024015;28;20025;-76
2021/05/02 11:06:41;;;;;;;22.17;6.30;;;793.70;1024.00;;;;;;5048759;28;20024;-76
2021/05/02 11:09:11;;;;;;;18.00;3.97;;;794.10;998.40;;;;;;5023680;28;20053;-76
2021/05/02 11:11:41;;;;;;;16.70;3.92;;;793.90;998.40;;;;;;5048000;28;20029;-78
2021/05/02 11:14:10;;;;;;;17.88;5.00;;;794.10;998.40;;;;;;5027087;28;20107;-76
2021/05/02 11:16:49;;;;;;;20.17;4.22;;;794.10;972.80;;;;;;5048190;28;20029;-76
2021/05/02 11:19:24;;;;;;;17.25;4.55;;;794.00;972.80;;;;;;5047447;28;20017;-75
2021/05/02 11:21:51;;;;;;;15.68;4.38;;;794.20;972.80;;;;;;5045021;28;20341;-78
2021/05/02 11:24:23;;;;;;;19.08;4.50;;;794.50;972.80;;;;;;5050586;28;20024;-76
2021/05/02 11:29:32;;;;;;;16.23;4.65;;;794.50;947.20;;;;;;5052522;28;20040;-75
2021/05/02 11:31:59;;;;;;;23.00;6.28;;;819.30;947.20;;;;;;5052424;28;20020;-77
2021/05/02 11:34:25;;;;;;;25.10;4.90;;;819.40;947.20;;;;;;5034426;28;20372;-76
2021/05/02 11:36:50;;;;;;;14.52;4.15;;;819.70;972.80;;;;;;5034533;28;20033;-77
2021/05/02 11:39:31;;;;;;;18.48;5.50;;;819.60;947.20;;;;;;5052057;28;20025;-77
2021/05/02 11:42:05;;;;;;;23.83;4.03;;;819.30;972.80;;;;;;5034284;28;20037;-75
2021/05/02 11:44:33;;;;;;;20.23;4.50;;;794.00;972.80;;;;;;5052714;28;20104;-80
2021/05/02 11:47:10;;;;;;;16.88;4.88;;;794.20;998.40;;;;;;5050601;28;20040;-76
2021/05/02 11:49:37;;;;;;;23.48;4.93;;;794.40;972.80;;;;;;5051063;28;20024;-76
2021/05/02 11:52:03;;;;;;;17.73;4.22;;;794.10;972.80;;;;;;5031345;28;20092;-78
2021/05/02 11:54:31;;;;;;;26.85;5.80;;;794.00;972.80;;;;;;5036638;28;20036;-76
2021/05/02 11:56:57;;;;;;;21.63;4.40;;;794.00;972.80;;;;;;5036463;28;20563;-77
2021/05/02 11:59:23;;;;;;;17.42;3.80;;;794.50;972.80;;;;;;5055632;28;20096;-77
2021/05/02 12:01:49;;;;;;;16.73;3.92;;;819.30;947.20;;;;;;5054851;28;20116;-76
2021/05/02 12:04:19;;;;;;;18.17;4.28;;;819.50;947.20;;;;;;5038013;28;20365;-77
2021/05/02 12:06:47;;;;;;;21.63;4.82;;;819.60;947.20;;;;;;5038173;28;20029;-79
2021/05/02 12:09:20;;;;;;;25.50;4.05;;;794.10;972.80;;;;;;5037335;28;20029;-77
2021/05/02 12:11:54;;;;;;;15.68;4.13;;;794.10;972.80;;;;;;5037971;28;20345;-77
2021/05/02 12:14:25;;;;;;;17.35;5.50;;;794.30;972.80;;;;;;5037808;28;20021;-78
2021/05/02 12:16:55;;;;;;;18.17;6.55;;;794.30;972.80;;;;;;5055198;28;20025;-77